sensor_id;sensor_type;location;lat;lon;timestamp;P1;durP1;ratioP1;P2;durP2;ratioP2
68216;SDS011;55037;52.354;4.992;2023-01-28T00:00:06;27.25;;;25.15;;
68216;SDS011;55037;52.354;4.992;2023-01-28T00:02:35;26.17;;;24.17;;
68216;SDS011;55037;52.354;4.992;2023-01-28T00:05:02;26.35;;;24.45;;
68216;SDS011;55037;52.354;4.992;2023-01-28T00:07:30;27.13;;;25.13;;
68216;SDS011;55037;52.354;4.992;2023-01-28T00:09:58;27.77;;;25.70;;
68216;SDS011;55037;52.354;4.992;2023-01-28T00:12:25;28.65;;;26.50;;
68216;SDS011;55037;52.354;4.992;2023-01-28T00:14:52;28.23;;;26.13;;
68216;SDS011;55037;52.354;4.992;2023-01-28T00:17:20;28.20;;;26.10;;
68216;SDS011;55037;52.354;4.992;2023-01-28T00:19:47;26.60;;;24.70;;
68216;SDS011;55037;52.354;4.992;2023-01-28T00:22:14;26.20;;;24.20;;
68216;SDS011;55037;52.354;4.992;2023-01-28T00:24:42;27.02;;;24.88;;
68216;SDS011;55037;52.354;4.992;2023-01-28T00:27:09;25.73;;;23.73;;
68216;SDS011;55037;52.354;4.992;2023-01-28T00:29:37;26.30;;;24.30;;
68216;SDS011;55037;52.354;4.992;2023-01-28T00:32:04;26.25;;;24.27;;
68216;SDS011;55037;52.354;4.992;2023-01-28T00:34:32;26.10;;;24.20;;
68216;SDS011;55037;52.354;4.992;2023-01-28T00:36:59;24.98;;;23.20;;
68216;SDS011;55037;52.354;4.992;2023-01-28T00:39:27;26.30;;;24.50;;
68216;SDS011;55037;52.354;4.992;2023-01-28T00:41:54;24.55;;;22.75;;
68216;SDS011;55037;52.354;4.992;2023-01-28T00:44:23;24.98;;;23.15;;
68216;SDS011;55037;52.354;4.992;2023-01-28T00:46:50;25.90;;;24.10;;
68216;SDS011;55037;52.354;4.992;2023-01-28T00:49:21;25.23;;;23.50;;
68216;SDS011;55037;52.354;4.992;2023-01-28T00:51:48;25.05;;;23.25;;
68216;SDS011;55037;52.354;4.992;2023-01-28T00:54:15;26.50;;;24.52;;
68216;SDS011;55037;52.354;4.992;2023-01-28T00:56:43;25.63;;;23.83;;
68216;SDS011;55037;52.354;4.992;2023-01-28T00:59:10;25.02;;;23.13;;
68216;SDS011;55037;52.354;4.992;2023-01-28T01:01:37;26.13;;;24.23;;
68216;SDS011;55037;52.354;4.992;2023-01-28T01:04:05;25.45;;;23.65;;
68216;SDS011;55037;52.354;4.992;2023-01-28T01:06:35;26.70;;;24.80;;
68216;SDS011;55037;52.354;4.992;2023-01-28T01:09:04;26.13;;;24.23;;
68216;SDS011;55037;52.354;4.992;2023-01-28T01:11:34;25.77;;;23.88;;
68216;SDS011;55037;52.354;4.992;2023-01-28T01:14:02;25.40;;;23.58;;
68216;SDS011;55037;52.354;4.992;2023-01-28T01:16:31;26.45;;;24.55;;
68216;SDS011;55037;52.354;4.992;2023-01-28T01:18:59;26.02;;;24.23;;
68216;SDS011;55037;52.354;4.992;2023-01-28T01:21:27;25.58;;;23.75;;
68216;SDS011;55037;52.354;4.992;2023-01-28T01:23:55;25.23;;;23.33;;
68216;SDS011;55037;52.354;4.992;2023-01-28T01:26:23;25.17;;;23.17;;
68216;SDS011;55037;52.354;4.992;2023-01-28T01:28:53;25.60;;;23.70;;
68216;SDS011;55037;52.354;4.992;2023-01-28T01:31:20;25.08;;;23.30;;
68216;SDS011;55037;52.354;4.992;2023-01-28T01:33:49;27.13;;;25.13;;
68216;SDS011;55037;52.354;4.992;2023-01-28T01:36:17;25.80;;;24.00;;
68216;SDS011;55037;52.354;4.992;2023-01-28T01:38:51;26.00;;;24.20;;
68216;SDS011;55037;52.354;4.992;2023-01-28T01:41:25;25.30;;;23.50;;
68216;SDS011;55037;52.354;4.992;2023-01-28T01:43:56;26.35;;;24.50;;
68216;SDS011;55037;52.354;4.992;2023-01-28T01:49:12;27.67;;;25.65;;
68216;SDS011;55037;52.354;4.992;2023-01-28T01:51:41;26.58;;;24.65;;
68216;SDS011;55037;52.354;4.992;2023-01-28T01:54:09;26.98;;;25.05;;
68216;SDS011;55037;52.354;4.992;2023-01-28T01:56:39;25.65;;;23.75;;
68216;SDS011;55037;52.354;4.992;2023-01-28T01:59:13;25.83;;;23.83;;
68216;SDS011;55037;52.354;4.992;2023-01-28T02:01:43;27.13;;;25.23;;
68216;SDS011;55037;52.354;4.992;2023-01-28T02:04:18;25.38;;;23.48;;
68216;SDS011;55037;52.354;4.992;2023-01-28T02:06:54;25.33;;;23.52;;
68216;SDS011;55037;52.354;4.992;2023-01-28T02:09:26;26.00;;;24.07;;
68216;SDS011;55037;52.354;4.992;2023-01-28T02:11:57;26.52;;;24.60;;
68216;SDS011;55037;52.354;4.992;2023-01-28T02:14:28;25.98;;;24.17;;
68216;SDS011;55037;52.354;4.992;2023-01-28T02:16:59;25.15;;;23.35;;
68216;SDS011;55037;52.354;4.992;2023-01-28T02:19:37;25.02;;;23.30;;
68216;SDS011;55037;52.354;4.992;2023-01-28T02:31:07;26.10;;;24.10;;
68216;SDS011;55037;52.354;4.992;2023-01-28T02:36:50;26.15;;;24.30;;
68216;SDS011;55037;52.354;4.992;2023-01-28T02:39:32;26.00;;;24.20;;
68216;SDS011;55037;52.354;4.992;2023-01-28T02:42:09;25.13;;;23.33;;
68216;SDS011;55037;52.354;4.992;2023-01-28T02:44:42;25.40;;;23.60;;
68216;SDS011;55037;52.354;4.992;2023-01-28T02:47:12;26.07;;;24.17;;
68216;SDS011;55037;52.354;4.992;2023-01-28T02:50:02;27.00;;;25.00;;
68216;SDS011;55037;52.354;4.992;2023-01-28T03:00:52;26.23;;;24.33;;
68216;SDS011;55037;52.354;4.992;2023-01-28T03:04:06;25.75;;;24.00;;
68216;SDS011;55037;52.354;4.992;2023-01-28T03:06:42;26.08;;;24.27;;
68216;SDS011;55037;52.354;4.992;2023-01-28T03:09:14;25.70;;;23.90;;
68216;SDS011;55037;52.354;4.992;2023-01-28T03:14:48;26.70;;;24.70;;
68216;SDS011;55037;52.354;4.992;2023-01-28T03:20:42;26.80;;;24.83;;
68216;SDS011;55037;52.354;4.992;2023-01-28T03:24:16;26.42;;;24.52;;
68216;SDS011;55037;52.354;4.992;2023-01-28T03:29:56;27.60;;;25.65;;
68216;SDS011;55037;52.354;4.992;2023-01-28T03:32:48;27.20;;;25.20;;
68216;SDS011;55037;52.354;4.992;2023-01-28T03:35:35;28.95;;;26.90;;
68216;SDS011;55037;52.354;4.992;2023-01-28T03:38:22;27.57;;;25.67;;
68216;SDS011;55037;52.354;4.992;2023-01-28T03:40:54;27.00;;;25.08;;
68216;SDS011;55037;52.354;4.992;2023-01-28T03:43:23;26.55;;;24.73;;
68216;SDS011;55037;52.354;4.992;2023-01-28T03:45:51;27.30;;;25.30;;
68216;SDS011;55037;52.354;4.992;2023-01-28T03:48:23;27.77;;;25.77;;
68216;SDS011;55037;52.354;4.992;2023-01-28T03:50:53;27.33;;;25.33;;
68216;SDS011;55037;52.354;4.992;2023-01-28T03:53:23;27.83;;;25.85;;
68216;SDS011;55037;52.354;4.992;2023-01-28T03:55:51;27.00;;;25.00;;
68216;SDS011;55037;52.354;4.992;2023-01-28T03:58:19;28.60;;;26.50;;
68216;SDS011;55037;52.354;4.992;2023-01-28T04:00:49;27.50;;;25.50;;
68216;SDS011;55037;52.354;4.992;2023-01-28T04:03:17;27.67;;;25.73;;
68216;SDS011;55037;52.354;4.992;2023-01-28T04:05:57;27.33;;;25.42;;
68216;SDS011;55037;52.354;4.992;2023-01-28T04:08:45;28.17;;;26.17;;
68216;SDS011;55037;52.354;4.992;2023-01-28T04:11:27;28.27;;;26.17;;
68216;SDS011;55037;52.354;4.992;2023-01-28T04:13:56;28.30;;;26.30;;
68216;SDS011;55037;52.354;4.992;2023-01-28T04:16:24;27.90;;;25.90;;
68216;SDS011;55037;52.354;4.992;2023-01-28T04:18:52;28.27;;;26.17;;
68216;SDS011;55037;52.354;4.992;2023-01-28T04:21:20;28.30;;;26.20;;
68216;SDS011;55037;52.354;4.992;2023-01-28T04:23:48;28.93;;;26.80;;
68216;SDS011;55037;52.354;4.992;2023-01-28T04:26:15;27.63;;;25.67;;
68216;SDS011;55037;52.354;4.992;2023-01-28T04:28:42;25.60;;;23.60;;
68216;SDS011;55037;52.354;4.992;2023-01-28T04:31:09;26.85;;;24.85;;
68216;SDS011;55037;52.354;4.992;2023-01-28T04:33:57;26.13;;;24.13;;
68216;SDS011;55037;52.354;4.992;2023-01-28T04:36:44;27.80;;;25.80;;
68216;SDS011;55037;52.354;4.992;2023-01-28T04:39:23;27.70;;;25.75;;
68216;SDS011;55037;52.354;4.992;2023-01-28T04:42:15;27.60;;;25.60;;
68216;SDS011;55037;52.354;4.992;2023-01-28T04:44:53;26.67;;;24.77;;
68216;SDS011;55037;52.354;4.992;2023-01-28T04:47:36;26.48;;;24.60;;
68216;SDS011;55037;52.354;4.992;2023-01-28T04:50:39;26.33;;;24.42;;
68216;SDS011;55037;52.354;4.992;2023-01-28T04:53:19;26.67;;;24.67;;
68216;SDS011;55037;52.354;4.992;2023-01-28T04:55:57;25.30;;;23.50;;
68216;SDS011;55037;52.354;4.992;2023-01-28T04:58:26;26.85;;;24.85;;
68216;SDS011;55037;52.354;4.992;2023-01-28T05:00:59;26.38;;;24.50;;
68216;SDS011;55037;52.354;4.992;2023-01-28T05:03:26;26.75;;;24.75;;
68216;SDS011;55037;52.354;4.992;2023-01-28T05:05:54;26.58;;;24.58;;
68216;SDS011;55037;52.354;4.992;2023-01-28T05:08:32;27.85;;;25.88;;
68216;SDS011;55037;52.354;4.992;2023-01-28T05:11:00;26.87;;;24.87;;
68216;SDS011;55037;52.354;4.992;2023-01-28T05:13:27;27.92;;;25.92;;
68216;SDS011;55037;52.354;4.992;2023-01-28T05:15:54;27.75;;;25.70;;
68216;SDS011;55037;52.354;4.992;2023-01-28T05:18:22;27.63;;;25.58;;
68216;SDS011;55037;52.354;4.992;2023-01-28T05:21:05;27.42;;;25.42;;
68216;SDS011;55037;52.354;4.992;2023-01-28T05:23:35;26.77;;;24.87;;
68216;SDS011;55037;52.354;4.992;2023-01-28T05:26:02;27.00;;;24.95;;
68216;SDS011;55037;52.354;4.992;2023-01-28T05:28:29;27.38;;;25.40;;
68216;SDS011;55037;52.354;4.992;2023-01-28T05:31:01;25.92;;;24.02;;
68216;SDS011;55037;52.354;4.992;2023-01-28T05:33:32;26.23;;;24.23;;
68216;SDS011;55037;52.354;4.992;2023-01-28T05:36:01;26.15;;;24.20;;
68216;SDS011;55037;52.354;4.992;2023-01-28T05:38:29;27.23;;;25.30;;
68216;SDS011;55037;52.354;4.992;2023-01-28T05:40:56;27.00;;;25.00;;
68216;SDS011;55037;52.354;4.992;2023-01-28T05:43:24;28.73;;;26.47;;
68216;SDS011;55037;52.354;4.992;2023-01-28T05:46:04;28.88;;;26.75;;
68216;SDS011;55037;52.354;4.992;2023-01-28T05:48:54;25.63;;;23.83;;
68216;SDS011;55037;52.354;4.992;2023-01-28T05:51:34;26.60;;;24.60;;
68216;SDS011;55037;52.354;4.992;2023-01-28T05:54:02;26.48;;;24.60;;
68216;SDS011;55037;52.354;4.992;2023-01-28T05:56:29;27.10;;;25.10;;
68216;SDS011;55037;52.354;4.992;2023-01-28T05:58:57;26.40;;;24.50;;
68216;SDS011;55037;52.354;4.992;2023-01-28T06:01:24;25.17;;;23.37;;
68216;SDS011;55037;52.354;4.992;2023-01-28T06:03:53;26.10;;;24.20;;
68216;SDS011;55037;52.354;4.992;2023-01-28T06:06:20;27.88;;;25.85;;
68216;SDS011;55037;52.354;4.992;2023-01-28T06:08:47;28.52;;;26.42;;
68216;SDS011;55037;52.354;4.992;2023-01-28T06:11:21;28.25;;;26.20;;
68216;SDS011;55037;52.354;4.992;2023-01-28T06:13:51;28.23;;;26.20;;
68216;SDS011;55037;52.354;4.992;2023-01-28T06:16:27;27.67;;;25.67;;
68216;SDS011;55037;52.354;4.992;2023-01-28T06:19:22;28.63;;;26.52;;
68216;SDS011;55037;52.354;4.992;2023-01-28T06:21:49;28.88;;;26.70;;
68216;SDS011;55037;52.354;4.992;2023-01-28T06:24:17;28.33;;;26.20;;
68216;SDS011;55037;52.354;4.992;2023-01-28T06:26:45;28.33;;;26.23;;
68216;SDS011;55037;52.354;4.992;2023-01-28T06:29:12;28.80;;;26.70;;
68216;SDS011;55037;52.354;4.992;2023-01-28T06:31:40;26.73;;;24.73;;
68216;SDS011;55037;52.354;4.992;2023-01-28T06:34:08;25.92;;;24.13;;
68216;SDS011;55037;52.354;4.992;2023-01-28T06:36:35;26.02;;;24.20;;
68216;SDS011;55037;52.354;4.992;2023-01-28T06:39:05;24.80;;;23.03;;
68216;SDS011;55037;52.354;4.992;2023-01-28T06:41:33;24.13;;;22.42;;
68216;SDS011;55037;52.354;4.992;2023-01-28T06:44:00;25.95;;;24.00;;
68216;SDS011;55037;52.354;4.992;2023-01-28T06:46:27;26.02;;;24.23;;
68216;SDS011;55037;52.354;4.992;2023-01-28T06:48:55;26.65;;;24.65;;
68216;SDS011;55037;52.354;4.992;2023-01-28T06:51:22;26.73;;;24.80;;
68216;SDS011;55037;52.354;4.992;2023-01-28T06:53:49;27.20;;;25.20;;
68216;SDS011;55037;52.354;4.992;2023-01-28T06:56:16;27.67;;;25.77;;
68216;SDS011;55037;52.354;4.992;2023-01-28T06:58:43;26.33;;;24.43;;
68216;SDS011;55037;52.354;4.992;2023-01-28T07:01:13;28.08;;;26.08;;
68216;SDS011;55037;52.354;4.992;2023-01-28T07:03:40;26.77;;;24.88;;
68216;SDS011;55037;52.354;4.992;2023-01-28T07:06:07;27.30;;;25.40;;
68216;SDS011;55037;52.354;4.992;2023-01-28T07:08:35;26.77;;;24.77;;
68216;SDS011;55037;52.354;4.992;2023-01-28T07:11:03;28.47;;;26.43;;
68216;SDS011;55037;52.354;4.992;2023-01-28T07:13:30;26.15;;;24.25;;
68216;SDS011;55037;52.354;4.992;2023-01-28T07:15:59;27.13;;;25.13;;
68216;SDS011;55037;52.354;4.992;2023-01-28T07:18:26;26.55;;;24.65;;
68216;SDS011;55037;52.354;4.992;2023-01-28T07:20:54;26.90;;;24.85;;
68216;SDS011;55037;52.354;4.992;2023-01-28T07:23:22;26.63;;;24.63;;
68216;SDS011;55037;52.354;4.992;2023-01-28T07:25:49;26.65;;;24.75;;
68216;SDS011;55037;52.354;4.992;2023-01-28T07:28:16;27.88;;;25.80;;
68216;SDS011;55037;52.354;4.992;2023-01-28T07:30:47;28.10;;;26.10;;
68216;SDS011;55037;52.354;4.992;2023-01-28T07:33:19;26.67;;;24.77;;
68216;SDS011;55037;52.354;4.992;2023-01-28T07:35:47;28.30;;;26.30;;
68216;SDS011;55037;52.354;4.992;2023-01-28T07:38:14;28.73;;;26.63;;
68216;SDS011;55037;52.354;4.992;2023-01-28T07:40:42;27.48;;;25.48;;
68216;SDS011;55037;52.354;4.992;2023-01-28T07:43:10;28.67;;;26.48;;
68216;SDS011;55037;52.354;4.992;2023-01-28T07:45:39;27.33;;;25.33;;
68216;SDS011;55037;52.354;4.992;2023-01-28T07:48:08;26.52;;;24.73;;
68216;SDS011;55037;52.354;4.992;2023-01-28T07:50:37;26.70;;;24.60;;
68216;SDS011;55037;52.354;4.992;2023-01-28T07:53:07;27.58;;;25.48;;
68216;SDS011;55037;52.354;4.992;2023-01-28T07:55:37;26.90;;;25.00;;
68216;SDS011;55037;52.354;4.992;2023-01-28T07:58:05;27.23;;;25.23;;
68216;SDS011;55037;52.354;4.992;2023-01-28T08:00:34;27.03;;;25.13;;
68216;SDS011;55037;52.354;4.992;2023-01-28T08:03:05;25.98;;;24.08;;
68216;SDS011;55037;52.354;4.992;2023-01-28T08:05:38;26.63;;;24.63;;
68216;SDS011;55037;52.354;4.992;2023-01-28T08:08:10;25.20;;;23.30;;
68216;SDS011;55037;52.354;4.992;2023-01-28T08:10:38;26.80;;;24.60;;
68216;SDS011;55037;52.354;4.992;2023-01-28T08:13:05;26.58;;;24.48;;
68216;SDS011;55037;52.354;4.992;2023-01-28T08:15:34;27.02;;;24.90;;
68216;SDS011;55037;52.354;4.992;2023-01-28T08:18:03;26.80;;;24.90;;
68216;SDS011;55037;52.354;4.992;2023-01-28T08:20:31;26.38;;;24.42;;
68216;SDS011;55037;52.354;4.992;2023-01-28T08:25:33;29.10;;;26.75;;
68216;SDS011;55037;52.354;4.992;2023-01-28T08:28:01;28.43;;;26.13;;
68216;SDS011;55037;52.354;4.992;2023-01-28T08:30:29;25.95;;;24.05;;
68216;SDS011;55037;52.354;4.992;2023-01-28T08:32:58;27.30;;;25.20;;
68216;SDS011;55037;52.354;4.992;2023-01-28T08:35:26;26.20;;;24.20;;
68216;SDS011;55037;52.354;4.992;2023-01-28T08:37:54;26.73;;;24.77;;
68216;SDS011;55037;52.354;4.992;2023-01-28T08:40:24;26.90;;;25.00;;
68216;SDS011;55037;52.354;4.992;2023-01-28T08:42:52;26.15;;;24.05;;
68216;SDS011;55037;52.354;4.992;2023-01-28T08:45:21;26.38;;;24.45;;
68216;SDS011;55037;52.354;4.992;2023-01-28T08:47:54;25.13;;;23.23;;
68216;SDS011;55037;52.354;4.992;2023-01-28T08:50:24;22.15;;;20.50;;
68216;SDS011;55037;52.354;4.992;2023-01-28T08:52:57;22.52;;;20.90;;
68216;SDS011;55037;52.354;4.992;2023-01-28T08:55:26;6.70;;;5.90;;
68216;SDS011;55037;52.354;4.992;2023-01-28T08:57:54;5.57;;;3.33;;
68216;SDS011;55037;52.354;4.992;2023-01-28T09:00:24;5.00;;;3.85;;
68216;SDS011;55037;52.354;4.992;2023-01-28T09:02:51;6.32;;;4.00;;
68216;SDS011;55037;52.354;4.992;2023-01-28T09:05:19;6.30;;;4.40;;
68216;SDS011;55037;52.354;4.992;2023-01-28T09:07:47;6.05;;;4.00;;
68216;SDS011;55037;52.354;4.992;2023-01-28T09:10:15;7.15;;;4.20;;
68216;SDS011;55037;52.354;4.992;2023-01-28T09:12:43;5.63;;;4.03;;
68216;SDS011;55037;52.354;4.992;2023-01-28T09:15:10;5.75;;;4.03;;
68216;SDS011;55037;52.354;4.992;2023-01-28T09:17:38;6.20;;;4.30;;
68216;SDS011;55037;52.354;4.992;2023-01-28T09:20:05;6.68;;;4.88;;
68216;SDS011;55037;52.354;4.992;2023-01-28T09:22:34;6.43;;;4.82;;
68216;SDS011;55037;52.354;4.992;2023-01-28T09:25:01;5.95;;;4.63;;
68216;SDS011;55037;52.354;4.992;2023-01-28T09:27:28;6.10;;;4.80;;
68216;SDS011;55037;52.354;4.992;2023-01-28T09:29:56;7.05;;;4.68;;
68216;SDS011;55037;52.354;4.992;2023-01-28T09:32:23;4.68;;;3.40;;
68216;SDS011;55037;52.354;4.992;2023-01-28T09:34:50;5.63;;;3.40;;
68216;SDS011;55037;52.354;4.992;2023-01-28T09:37:17;4.60;;;3.75;;
68216;SDS011;55037;52.354;4.992;2023-01-28T09:39:44;6.43;;;3.65;;
68216;SDS011;55037;52.354;4.992;2023-01-28T09:47:46;3.83;;;2.72;;
68216;SDS011;55037;52.354;4.992;2023-01-28T09:50:19;4.68;;;3.03;;
68216;SDS011;55037;52.354;4.992;2023-01-28T09:52:58;5.10;;;3.33;;
68216;SDS011;55037;52.354;4.992;2023-01-28T09:56:08;5.45;;;3.03;;
68216;SDS011;55037;52.354;4.992;2023-01-28T09:58:40;4.57;;;2.72;;
68216;SDS011;55037;52.354;4.992;2023-01-28T10:09:49;5.32;;;2.90;;
68216;SDS011;55037;52.354;4.992;2023-01-28T10:12:48;4.88;;;2.88;;
68216;SDS011;55037;52.354;4.992;2023-01-28T10:15:53;4.80;;;2.80;;
68216;SDS011;55037;52.354;4.992;2023-01-28T10:18:34;4.73;;;3.00;;
68216;SDS011;55037;52.354;4.992;2023-01-28T10:21:26;5.27;;;3.00;;
68216;SDS011;55037;52.354;4.992;2023-01-28T10:26:46;4.55;;;2.90;;
68216;SDS011;55037;52.354;4.992;2023-01-28T10:29:14;3.85;;;2.55;;
68216;SDS011;55037;52.354;4.992;2023-01-28T10:34:30;4.47;;;2.40;;
68216;SDS011;55037;52.354;4.992;2023-01-28T10:36:58;5.13;;;2.47;;
68216;SDS011;55037;52.354;4.992;2023-01-28T10:39:25;4.53;;;2.40;;
68216;SDS011;55037;52.354;4.992;2023-01-28T10:41:55;4.90;;;2.40;;
68216;SDS011;55037;52.354;4.992;2023-01-28T10:44:31;5.00;;;2.70;;
68216;SDS011;55037;52.354;4.992;2023-01-28T10:47:05;4.53;;;2.63;;
68216;SDS011;55037;52.354;4.992;2023-01-28T10:49:52;4.90;;;2.42;;
68216;SDS011;55037;52.354;4.992;2023-01-28T10:52:21;5.85;;;2.58;;
68216;SDS011;55037;52.354;4.992;2023-01-28T10:54:57;4.03;;;2.50;;
68216;SDS011;55037;52.354;4.992;2023-01-28T10:57:29;3.97;;;2.55;;
68216;SDS011;55037;52.354;4.992;2023-01-28T11:03:01;4.70;;;2.55;;
68216;SDS011;55037;52.354;4.992;2023-01-28T11:05:31;4.15;;;2.70;;
68216;SDS011;55037;52.354;4.992;2023-01-28T11:08:05;5.25;;;2.50;;
68216;SDS011;55037;52.354;4.992;2023-01-28T11:10:40;5.53;;;2.33;;
68216;SDS011;55037;52.354;4.992;2023-01-28T11:13:16;4.35;;;2.45;;
68216;SDS011;55037;52.354;4.992;2023-01-28T11:15:53;5.45;;;2.53;;
68216;SDS011;55037;52.354;4.992;2023-01-28T11:18:24;4.47;;;2.27;;
68216;SDS011;55037;52.354;4.992;2023-01-28T11:20:55;3.85;;;2.00;;
68216;SDS011;55037;52.354;4.992;2023-01-28T11:23:26;5.18;;;2.75;;
68216;SDS011;55037;52.354;4.992;2023-01-28T11:26:43;4.72;;;2.30;;
68216;SDS011;55037;52.354;4.992;2023-01-28T11:28:53;5.20;;;2.20;;
68216;SDS011;55037;52.354;4.992;2023-01-28T11:31:21;3.90;;;2.13;;
68216;SDS011;55037;52.354;4.992;2023-01-28T11:36:25;5.22;;;2.20;;
68216;SDS011;55037;52.354;4.992;2023-01-28T11:39:01;3.93;;;2.00;;
68216;SDS011;55037;52.354;4.992;2023-01-28T11:41:41;5.43;;;2.10;;
68216;SDS011;55037;52.354;4.992;2023-01-28T11:44:20;5.57;;;2.10;;
68216;SDS011;55037;52.354;4.992;2023-01-28T12:03:14;4.13;;;2.10;;
68216;SDS011;55037;52.354;4.992;2023-01-28T12:09:05;4.73;;;2.00;;
68216;SDS011;55037;52.354;4.992;2023-01-28T12:17:32;5.50;;;2.47;;
68216;SDS011;55037;52.354;4.992;2023-01-28T12:26:31;5.38;;;2.28;;
68216;SDS011;55037;52.354;4.992;2023-01-28T12:34:29;5.18;;;2.55;;
68216;SDS011;55037;52.354;4.992;2023-01-28T12:45:46;4.60;;;2.10;;
68216;SDS011;55037;52.354;4.992;2023-01-28T12:51:20;4.95;;;2.33;;
68216;SDS011;55037;52.354;4.992;2023-01-28T12:54:00;5.10;;;2.40;;
68216;SDS011;55037;52.354;4.992;2023-01-28T12:56:36;4.45;;;2.42;;
68216;SDS011;55037;52.354;4.992;2023-01-28T12:59:14;5.07;;;2.38;;
68216;SDS011;55037;52.354;4.992;2023-01-28T13:01:54;5.57;;;2.20;;
68216;SDS011;55037;52.354;4.992;2023-01-28T13:04:38;5.05;;;2.25;;
68216;SDS011;55037;52.354;4.992;2023-01-28T13:09:59;5.55;;;4.30;;
68216;SDS011;55037;52.354;4.992;2023-01-28T13:12:31;5.10;;;4.10;;
68216;SDS011;55037;52.354;4.992;2023-01-28T13:14:59;6.20;;;4.47;;
68216;SDS011;55037;52.354;4.992;2023-01-28T13:17:28;7.18;;;4.68;;
68216;SDS011;55037;52.354;4.992;2023-01-28T13:19:58;6.75;;;4.50;;
68216;SDS011;55037;52.354;4.992;2023-01-28T13:22:26;8.40;;;4.60;;
68216;SDS011;55037;52.354;4.992;2023-01-28T13:25:17;5.77;;;4.60;;
68216;SDS011;55037;52.354;4.992;2023-01-28T13:33:00;6.13;;;5.38;;
68216;SDS011;55037;52.354;4.992;2023-01-28T13:35:36;6.40;;;5.00;;
68216;SDS011;55037;52.354;4.992;2023-01-28T13:38:18;6.57;;;4.97;;
68216;SDS011;55037;52.354;4.992;2023-01-28T13:40:57;6.63;;;4.73;;
68216;SDS011;55037;52.354;4.992;2023-01-28T13:46:00;7.43;;;4.93;;
68216;SDS011;55037;52.354;4.992;2023-01-28T13:48:40;7.63;;;4.80;;
68216;SDS011;55037;52.354;4.992;2023-01-28T13:51:09;7.03;;;4.78;;
68216;SDS011;55037;52.354;4.992;2023-01-28T13:53:48;7.15;;;4.80;;
68216;SDS011;55037;52.354;4.992;2023-01-28T13:56:26;8.20;;;5.13;;
68216;SDS011;55037;52.354;4.992;2023-01-28T14:07:51;7.43;;;5.28;;
68216;SDS011;55037;52.354;4.992;2023-01-28T14:19:32;7.73;;;5.03;;
68216;SDS011;55037;52.354;4.992;2023-01-28T14:22:05;8.65;;;4.93;;
68216;SDS011;55037;52.354;4.992;2023-01-28T14:24:33;8.80;;;5.20;;
68216;SDS011;55037;52.354;4.992;2023-01-28T14:27:14;7.03;;;5.10;;
68216;SDS011;55037;52.354;4.992;2023-01-28T14:29:55;7.45;;;5.07;;
68216;SDS011;55037;52.354;4.992;2023-01-28T14:32:34;7.47;;;5.32;;
68216;SDS011;55037;52.354;4.992;2023-01-28T14:35:06;7.88;;;5.22;;
68216;SDS011;55037;52.354;4.992;2023-01-28T14:37:35;8.30;;;5.10;;
68216;SDS011;55037;52.354;4.992;2023-01-28T14:40:05;6.97;;;4.88;;
68216;SDS011;55037;52.354;4.992;2023-01-28T14:48:13;7.38;;;4.80;;
68216;SDS011;55037;52.354;4.992;2023-01-28T14:54:00;7.32;;;4.65;;
68216;SDS011;55037;52.354;4.992;2023-01-28T15:01:46;8.32;;;4.97;;
68216;SDS011;55037;52.354;4.992;2023-01-28T15:04:23;8.80;;;5.20;;
68216;SDS011;55037;52.354;4.992;2023-01-28T15:07:00;8.50;;;4.80;;
68216;SDS011;55037;52.354;4.992;2023-01-28T15:09:41;7.50;;;4.80;;
68216;SDS011;55037;52.354;4.992;2023-01-28T15:12:08;7.77;;;4.73;;
68216;SDS011;55037;52.354;4.992;2023-01-28T15:14:36;7.00;;;4.90;;
68216;SDS011;55037;52.354;4.992;2023-01-28T15:17:04;7.70;;;4.22;;
68216;SDS011;55037;52.354;4.992;2023-01-28T15:19:35;6.93;;;4.20;;
68216;SDS011;55037;52.354;4.992;2023-01-28T15:22:04;8.00;;;4.90;;
68216;SDS011;55037;52.354;4.992;2023-01-28T15:24:33;7.82;;;5.35;;
68216;SDS011;55037;52.354;4.992;2023-01-28T15:27:01;9.23;;;4.40;;
68216;SDS011;55037;52.354;4.992;2023-01-28T15:29:30;7.35;;;4.97;;
68216;SDS011;55037;52.354;4.992;2023-01-28T15:31:59;8.65;;;5.40;;
68216;SDS011;55037;52.354;4.992;2023-01-28T15:34:27;8.15;;;5.30;;
68216;SDS011;55037;52.354;4.992;2023-01-28T15:36:58;9.23;;;6.53;;
68216;SDS011;55037;52.354;4.992;2023-01-28T15:39:26;9.13;;;6.50;;
68216;SDS011;55037;52.354;4.992;2023-01-28T15:44:31;12.80;;;9.40;;
68216;SDS011;55037;52.354;4.992;2023-01-28T15:47:00;12.63;;;9.40;;
68216;SDS011;55037;52.354;4.992;2023-01-28T15:49:33;13.80;;;12.50;;
68216;SDS011;55037;52.354;4.992;2023-01-28T15:52:03;15.00;;;13.13;;
68216;SDS011;55037;52.354;4.992;2023-01-28T15:54:30;17.13;;;15.63;;
68216;SDS011;55037;52.354;4.992;2023-01-28T15:57:07;17.77;;;16.17;;
68216;SDS011;55037;52.354;4.992;2023-01-28T15:59:44;18.70;;;17.00;;
68216;SDS011;55037;52.354;4.992;2023-01-28T16:02:17;18.25;;;16.48;;
68216;SDS011;55037;52.354;4.992;2023-01-28T16:07:23;20.98;;;19.00;;
68216;SDS011;55037;52.354;4.992;2023-01-28T16:09:52;20.08;;;18.25;;
68216;SDS011;55037;52.354;4.992;2023-01-28T16:12:21;16.95;;;15.45;;
68216;SDS011;55037;52.354;4.992;2023-01-28T16:14:55;17.30;;;15.70;;
68216;SDS011;55037;52.354;4.992;2023-01-28T16:17:28;17.50;;;15.90;;
68216;SDS011;55037;52.354;4.992;2023-01-28T16:20:02;18.33;;;16.67;;
68216;SDS011;55037;52.354;4.992;2023-01-28T16:22:33;18.38;;;16.70;;
68216;SDS011;55037;52.354;4.992;2023-01-28T16:25:22;19.30;;;17.57;;
68216;SDS011;55037;52.354;4.992;2023-01-28T16:27:56;20.80;;;18.88;;
68216;SDS011;55037;52.354;4.992;2023-01-28T16:30:24;20.13;;;18.23;;
68216;SDS011;55037;52.354;4.992;2023-01-28T16:32:52;22.07;;;19.77;;
68216;SDS011;55037;52.354;4.992;2023-01-28T16:35:25;20.20;;;18.20;;
68216;SDS011;55037;52.354;4.992;2023-01-28T16:38:14;21.42;;;19.50;;
68216;SDS011;55037;52.354;4.992;2023-01-28T16:40:44;18.85;;;17.05;;
68216;SDS011;55037;52.354;4.992;2023-01-28T16:43:13;21.95;;;20.05;;
68216;SDS011;55037;52.354;4.992;2023-01-28T16:45:41;20.67;;;18.83;;
68216;SDS011;55037;52.354;4.992;2023-01-28T16:48:09;23.52;;;21.35;;
68216;SDS011;55037;52.354;4.992;2023-01-28T16:50:37;23.63;;;21.37;;
68216;SDS011;55037;52.354;4.992;2023-01-28T16:53:40;21.30;;;19.40;;
68216;SDS011;55037;52.354;4.992;2023-01-28T16:56:02;21.17;;;19.27;;
68216;SDS011;55037;52.354;4.992;2023-01-28T16:58:30;20.67;;;18.87;;
68216;SDS011;55037;52.354;4.992;2023-01-28T17:00:57;20.15;;;18.33;;
68216;SDS011;55037;52.354;4.992;2023-01-28T17:03:24;22.25;;;20.20;;
68216;SDS011;55037;52.354;4.992;2023-01-28T17:05:52;22.67;;;20.58;;
68216;SDS011;55037;52.354;4.992;2023-01-28T17:08:19;21.77;;;19.50;;
68216;SDS011;55037;52.354;4.992;2023-01-28T17:10:50;21.30;;;19.40;;
68216;SDS011;55037;52.354;4.992;2023-01-28T17:13:21;20.77;;;18.70;;
68216;SDS011;55037;52.354;4.992;2023-01-28T17:15:48;20.88;;;18.70;;
68216;SDS011;55037;52.354;4.992;2023-01-28T17:18:16;21.00;;;19.00;;
68216;SDS011;55037;52.354;4.992;2023-01-28T17:20:43;21.10;;;19.03;;
68216;SDS011;55037;52.354;4.992;2023-01-28T17:23:12;22.13;;;20.00;;
68216;SDS011;55037;52.354;4.992;2023-01-28T17:25:41;25.98;;;23.27;;
68216;SDS011;55037;52.354;4.992;2023-01-28T17:28:09;25.77;;;23.45;;
68216;SDS011;55037;52.354;4.992;2023-01-28T17:30:39;23.58;;;21.50;;
68216;SDS011;55037;52.354;4.992;2023-01-28T17:33:07;22.77;;;20.77;;
68216;SDS011;55037;52.354;4.992;2023-01-28T17:35:35;27.13;;;24.40;;